createdAt,value
2022-08-04T00:02:24.298Z,101030.09
2022-08-04T00:05:11.351Z,101039.19
2022-08-04T00:08:14.820Z,101044.84
2022-08-04T00:10:48.702Z,101051.47
2022-08-04T00:13:16.999Z,101051.72
2022-08-04T00:15:44.645Z,101044.72
2022-08-04T00:18:15.549Z,101047.66
2022-08-04T00:20:42.807Z,101055.03
2022-08-04T00:23:10.911Z,101057.13
2022-08-04T00:25:41.591Z,101047.28
2022-08-04T00:28:09.044Z,101049.25
2022-08-04T00:30:35.998Z,101055.75
2022-08-04T00:33:03.004Z,101055.13
2022-08-04T00:35:29.656Z,101059.66
2022-08-04T00:37:57.220Z,101053.66
2022-08-04T00:41:06.426Z,101051.91
2022-08-04T00:44:05.945Z,101035.09
2022-08-04T00:47:02.815Z,101046.75
2022-08-04T00:49:51.298Z,101038.91
2022-08-04T00:52:43.963Z,101036.47
2022-08-04T00:55:28.994Z,101031.16
2022-08-04T00:58:20.148Z,101035.84
2022-08-04T01:01:03.205Z,101045.09
2022-08-04T01:03:49.240Z,101049.00
2022-08-04T01:06:34.916Z,101047.53
2022-08-04T01:09:25.158Z,101044.97
2022-08-04T01:12:06.955Z,101044.97
2022-08-04T01:14:39.426Z,101048.63
2022-08-04T01:17:28.787Z,101047.16
2022-08-04T01:19:58.110Z,101049.13
2022-08-04T01:22:44.917Z,101046.44
2022-08-04T01:25:58.375Z,101048.13
2022-08-04T01:28:50.259Z,101057.31
2022-08-04T01:31:35.398Z,101056.69
2022-08-04T01:34:05.770Z,101059.84
2022-08-04T01:36:35.941Z,101052.84
2022-08-04T01:39:24.021Z,101039.50
2022-08-04T01:41:58.491Z,101041.56
2022-08-04T01:44:29.751Z,101045.34
2022-08-04T01:46:56.596Z,101055.50
2022-08-04T01:49:39.701Z,101047.66
2022-08-04T01:52:09.340Z,101050.56
2022-08-04T01:54:38.332Z,101055.13
2022-08-04T01:57:38.481Z,101053.63
2022-08-04T01:59:53.721Z,101045.91
2022-08-04T02:02:24.470Z,101053.22
2022-08-04T02:04:51.255Z,101051.63
2022-08-04T02:07:40.180Z,101040.09
2022-08-04T02:10:41.876Z,101040.09
2022-08-04T02:13:21.382Z,101044.50
2022-08-04T02:16:13.497Z,101038.13
2022-08-04T02:19:05.685Z,101039.88
2022-08-04T02:21:42.644Z,101044.41
2022-08-04T02:24:14.870Z,101047.84
2022-08-04T02:26:46.555Z,101038.75
2022-08-04T02:29:35.817Z,101039.88
2022-08-04T02:32:06.473Z,101035.34
2022-08-04T02:34:54.745Z,101028.25
2022-08-04T02:37:24.335Z,101041.59
2022-08-04T02:39:53.748Z,101039.03
2022-08-04T02:42:20.407Z,101051.50
2022-08-04T02:44:51.662Z,101046.13
2022-08-04T02:47:22.432Z,101047.97
2022-08-04T02:49:51.352Z,101054.31
2022-08-04T02:52:19.951Z,101065.22
2022-08-04T02:54:49.207Z,101061.66
2022-08-04T02:57:19.003Z,101063.59
2022-08-04T02:59:45.724Z,101069.84
2022-08-04T03:02:12.276Z,101066.44
2022-08-04T03:05:03.394Z,101068.28
2022-08-04T03:07:58.135Z,101067.38
2022-08-04T03:10:54.942Z,101062.00
2022-08-04T03:14:00.698Z,101064.69
2022-08-04T03:16:54.965Z,101069.00
2022-08-04T03:19:24.532Z,101069.84
2022-08-04T03:22:12.539Z,101063.28
2022-08-04T03:25:03.243Z,101061.22
2022-08-04T03:27:54.375Z,101061.22
2022-08-04T03:30:37.937Z,101061.22
2022-08-04T03:33:45.161Z,101070.78
2022-08-04T03:36:17.403Z,101069.81
2022-08-04T03:39:02.432Z,101071.50
2022-08-04T03:41:55.130Z,101078.88
2022-08-04T03:44:59.693Z,101076.28
2022-08-04T03:47:49.834Z,101075.41
2022-08-04T03:50:23.052Z,101072.00
2022-08-04T03:53:13.896Z,101073.81
2022-08-04T03:56:02.000Z,101083.72
2022-08-04T03:59:01.297Z,101085.81
2022-08-04T04:02:23.446Z,101090.34
2022-08-04T04:05:59.350Z,101098.97
2022-08-04T04:08:55.968Z,101092.34
2022-08-04T04:11:34.156Z,101091.91
2022-08-04T04:14:46.190Z,101096.81
2022-08-04T04:17:37.739Z,101098.97
2022-08-04T04:20:32.636Z,101103.88
2022-08-04T04:23:23.820Z,101101.94
2022-08-04T04:26:07.052Z,101108.16
2022-08-04T04:29:07.673Z,101106.97
2022-08-04T04:31:53.778Z,101118.50
2022-08-04T04:34:46.200Z,101113.75
2022-08-04T04:37:34.659Z,101115.34
2022-08-04T04:40:32.167Z,101111.66
2022-08-04T04:43:23.950Z,101113.38
2022-08-04T04:46:32.377Z,101118.03
2022-08-04T04:49:08.688Z,101116.44
2022-08-04T04:51:48.103Z,101121.19
2022-08-04T04:54:28.801Z,101120.22
2022-08-04T04:57:10.806Z,101120.97
2022-08-04T04:59:41.549Z,101122.81
2022-08-04T05:02:24.089Z,101121.97
2022-08-04T05:05:25.879Z,101125.28
2022-08-04T05:07:58.639Z,101130.09
2022-08-04T05:11:02.570Z,101126.03
2022-08-04T05:14:38.595Z,101125.84
2022-08-04T05:16:33.310Z,101128.22
2022-08-04T05:19:34.281Z,101136.19
2022-08-04T05:22:14.600Z,101127.00
2022-08-04T05:24:46.689Z,101137.56
2022-08-04T05:27:22.408Z,101136.56
2022-08-04T05:29:59.141Z,101145.41
2022-08-04T05:32:31.142Z,101141.50
2022-08-04T05:35:07.210Z,101141.50
2022-08-04T05:37:38.003Z,101148.50
2022-08-04T05:40:07.032Z,101151.22
2022-08-04T05:42:38.322Z,101151.22
2022-08-04T05:45:07.791Z,101144.69
2022-08-04T05:47:35.307Z,101150.97
2022-08-04T05:50:06.608Z,101149.00
2022-08-04T05:52:36.628Z,101148.00
2022-08-04T05:55:05.538Z,101148.63
2022-08-04T05:57:33.363Z,101141.19
2022-08-04T06:00:19.508Z,101141.81
2022-08-04T06:02:51.790Z,101141.44
2022-08-04T06:05:19.167Z,101147.47
2022-08-04T06:08:11.887Z,101151.88
2022-08-04T06:10:37.658Z,101157.28
2022-08-04T06:13:08.654Z,101153.63
2022-08-04T06:15:39.261Z,101157.88
2022-08-04T06:19:58.715Z,101151.41
2022-08-04T06:21:03.819Z,101149.22
2022-08-04T06:23:53.265Z,101141.72
2022-08-04T06:26:26.456Z,101134.25
2022-08-04T06:28:54.903Z,101141.97
2022-08-04T06:32:27.408Z,101145.03
2022-08-04T06:34:31.507Z,101143.59
2022-08-04T06:36:59.368Z,101153.31
2022-08-04T06:39:28.117Z,101144.06
2022-08-04T06:42:20.705Z,101145.44
2022-08-04T06:44:44.467Z,101159.47
2022-08-04T06:47:13.887Z,101154.66
2022-08-04T06:49:55.202Z,101165.09
2022-08-04T06:52:28.818Z,101171.84
2022-08-04T06:54:58.059Z,101169.63
2022-08-04T06:57:29.030Z,101160.88
2022-08-04T07:00:17.331Z,101168.16
2022-08-04T07:02:53.577Z,101164.56
2022-08-04T07:05:21.360Z,101165.56
2022-08-04T07:07:57.305Z,101158.50
2022-08-04T07:10:29.380Z,101165.97
2022-08-04T07:13:01.465Z,101155.91
2022-08-04T07:15:31.505Z,101161.16
2022-08-04T07:18:00.318Z,101171.03
2022-08-04T07:20:34.845Z,101164.88
2022-08-04T07:23:06.449Z,101158.84
2022-08-04T07:26:00.828Z,101157.16
2022-08-04T07:28:26.151Z,101148.28
2022-08-04T07:30:53.926Z,101150.00
2022-08-04T07:33:21.467Z,101152.91
2022-08-04T07:36:09.347Z,101151.78
2022-08-04T07:38:48.729Z,101159.47
2022-08-04T07:41:38.296Z,101153.78
2022-08-04T07:44:05.338Z,101164.69
2022-08-04T07:46:32.373Z,101157.63
2022-08-04T07:49:01.065Z,101144.19
2022-08-04T07:51:30.742Z,101161.44
2022-08-04T07:53:58.714Z,101164.41
2022-08-04T07:56:26.870Z,101165.66
2022-08-04T07:58:54.245Z,101174.47
2022-08-04T08:01:21.573Z,101180.53
2022-08-04T08:03:48.985Z,101180.03
2022-08-04T08:06:30.485Z,101174.78
2022-08-04T08:09:02.338Z,101179.31
2022-08-04T08:12:35.113Z,101189.88
2022-08-04T08:14:32.067Z,101182.69
2022-08-04T08:17:00.289Z,101182.31
2022-08-04T08:19:26.985Z,101191.16
2022-08-04T08:21:58.833Z,101182.66
2022-08-04T08:24:27.282Z,101184.59
2022-08-04T08:26:54.143Z,101183.38
2022-08-04T08:29:21.282Z,101188.63
2022-08-04T08:31:57.355Z,101175.44
2022-08-04T08:34:28.954Z,101184.59
2022-08-04T08:37:03.294Z,101188.09
2022-08-04T08:39:40.325Z,101188.88
2022-08-04T08:42:18.800Z,101190.19
2022-08-04T08:45:12.816Z,101182.66
2022-08-04T08:48:21.070Z,101185.09
2022-08-04T08:50:47.572Z,101195.34
2022-08-04T08:53:24.302Z,101196.63
2022-08-04T08:56:02.805Z,101193.06
2022-08-04T08:58:46.932Z,101189.09
2022-08-04T09:01:41.980Z,101191.25
2022-08-04T09:04:33.284Z,101192.44
2022-08-04T09:07:13.839Z,101194.72
2022-08-04T09:09:49.532Z,101186.88
2022-08-04T09:12:31.550Z,101194.88
2022-08-04T09:15:12.680Z,101198.91
2022-08-04T09:18:02.216Z,101197.38
2022-08-04T09:20:40.526Z,101196.09
2022-08-04T09:23:24.079Z,101201.41
2022-08-04T09:26:15.675Z,101209.97
2022-08-04T09:28:57.891Z,101195.28
2022-08-04T09:31:51.534Z,101199.88
2022-08-04T09:35:03.109Z,101192.50
2022-08-04T09:37:51.520Z,101199.06
2022-08-04T09:40:53.615Z,101206.53
2022-08-04T09:44:49.133Z,101201.09
2022-08-04T09:47:39.857Z,101205.72
2022-08-04T09:50:37.707Z,101200.47
2022-08-04T09:53:24.986Z,101206.03
2022-08-04T09:56:14.782Z,101179.91
2022-08-04T09:58:54.081Z,101197.19
2022-08-04T10:01:24.299Z,101190.19
2022-08-04T10:03:55.139Z,101201.47
2022-08-04T10:07:00.770Z,101211.91
2022-08-04T10:10:12.297Z,101208.63
2022-08-04T10:12:49.264Z,101210.16
2022-08-04T10:15:36.882Z,101218.34
2022-08-04T10:18:26.990Z,101206.63
2022-08-04T10:21:15.637Z,101197.59
2022-08-04T10:24:13.897Z,101192.25
2022-08-04T10:26:43.374Z,101207.84
2022-08-04T10:29:26.301Z,101203.50
2022-08-04T10:32:39.991Z,101202.19
2022-08-04T10:35:18.716Z,101204.13
2022-08-04T10:38:03.979Z,101197.56
2022-08-04T10:40:36.475Z,101206.72
2022-08-04T10:43:30.851Z,101198.28
2022-08-04T10:46:14.932Z,101203.97
2022-08-04T10:48:54.107Z,101201.50
2022-08-04T10:51:58.112Z,101199.94
2022-08-04T10:54:44.011Z,101204.59
2022-08-04T10:57:34.518Z,101206.38
2022-08-04T11:00:10.440Z,101194.81
2022-08-04T11:03:01.942Z,101190.31
2022-08-04T11:05:44.649Z,101206.53
2022-08-04T11:08:35.683Z,101212.03
2022-08-04T11:11:24.492Z,101222.94
2022-08-04T11:14:03.003Z,101220.22
2022-08-04T11:16:37.996Z,101212.50
2022-08-04T11:19:19.538Z,101216.03
2022-08-04T11:22:08.957Z,101213.56
2022-08-04T11:25:05.224Z,101218.72
2022-08-04T11:27:43.522Z,101216.53
2022-08-04T11:30:13.407Z,101217.44
2022-08-04T11:32:55.943Z,101211.56
2022-08-04T11:35:34.602Z,101217.09
2022-08-04T11:38:29.181Z,101213.44
2022-08-04T11:41:04.390Z,101215.84
2022-08-04T11:44:01.956Z,101212.44
2022-08-04T11:46:50.692Z,101212.75
2022-08-04T11:49:56.836Z,101207.69
2022-08-04T11:52:27.075Z,101215.22
2022-08-04T11:54:55.813Z,101211.88
2022-08-04T11:57:35.437Z,101212.59
2022-08-04T12:00:07.287Z,101203.13
2022-08-04T12:02:52.265Z,101220.22
2022-08-04T12:05:37.116Z,101204.22
2022-08-04T12:08:33.236Z,101201.50
2022-08-04T12:11:21.359Z,101201.50
2022-08-04T12:14:03.226Z,101208.38
2022-08-04T12:17:01.696Z,101211.47
2022-08-04T12:19:52.153Z,101211.81
2022-08-04T12:22:32.360Z,101210.28
2022-08-04T12:25:12.003Z,101204.28
2022-08-04T12:28:00.891Z,101209.06
2022-08-04T12:31:00.534Z,101210.44
2022-08-04T12:34:03.548Z,101205.66
2022-08-04T12:36:31.675Z,101212.50
2022-08-04T12:39:13.107Z,101198.81
2022-08-04T12:41:44.866Z,101197.28
2022-08-04T12:44:37.492Z,101197.78
2022-08-04T12:47:27.841Z,101204.44
2022-08-04T12:50:00.313Z,101209.06
2022-08-04T12:55:18.727Z,101192.63
2022-08-04T12:57:47.825Z,101203.38
2022-08-04T13:00:31.212Z,101195.72
2022-08-04T13:03:10.116Z,101195.56
2022-08-04T13:05:39.300Z,101194.00
2022-08-04T13:08:07.439Z,101190.59
2022-08-04T13:10:39.632Z,101184.78
2022-08-04T13:13:12.370Z,101178.28
2022-08-04T13:15:47.457Z,101169.72
2022-08-04T13:18:29.256Z,101172.41
2022-08-04T13:21:10.477Z,101170.38
2022-08-04T13:24:10.704Z,101176.19
2022-08-04T13:26:42.740Z,101172.41
2022-08-04T13:29:59.770Z,101172.41
2022-08-04T13:32:15.466Z,101171.66
2022-08-04T13:34:49.562Z,101166.00
2022-08-04T13:37:25.347Z,101162.69
2022-08-04T13:39:55.279Z,101158.38
2022-08-04T13:42:24.109Z,101162.72
2022-08-04T13:44:56.039Z,101156.97
2022-08-04T13:47:28.804Z,101157.97
2022-08-04T13:50:16.383Z,101154.34
2022-08-04T13:52:44.724Z,101159.91
2022-08-04T13:55:32.653Z,101159.50
2022-08-04T13:58:02.277Z,101163.50
2022-08-04T14:00:41.721Z,101144.19
2022-08-04T14:03:22.924Z,101147.91
2022-08-04T14:06:28.651Z,101153.56
2022-08-04T14:08:58.138Z,101153.81
2022-08-04T14:12:06.480Z,101151.03
2022-08-04T14:14:29.589Z,101155.47
2022-08-04T14:17:05.811Z,101154.47
2022-08-04T14:19:47.938Z,101148.09
2022-08-04T14:22:26.610Z,101150.88
2022-08-04T14:25:06.124Z,101151.97
2022-08-04T14:27:48.169Z,101142.66
2022-08-04T14:30:35.326Z,101147.63
2022-08-04T14:34:04.008Z,101141.88
2022-08-04T14:35:59.301Z,101139.22
2022-08-04T14:38:45.344Z,101135.00
2022-08-04T14:41:13.111Z,101133.63
2022-08-04T14:43:52.929Z,101124.75
2022-08-04T14:46:20.795Z,101126.66
2022-08-04T14:49:23.214Z,101118.97
2022-08-04T14:51:55.316Z,101118.81
2022-08-04T14:54:33.074Z,101121.59
2022-08-04T14:57:07.200Z,101114.91
2022-08-04T14:59:59.002Z,101111.00
2022-08-04T15:02:29.906Z,101112.72
2022-08-04T15:04:58.687Z,101115.75
2022-08-04T15:07:26.224Z,101110.47
2022-08-04T15:09:53.823Z,101110.66
2022-08-04T15:12:34.640Z,101107.41
2022-08-04T15:15:20.038Z,101124.28
2022-08-04T15:17:48.862Z,101116.38
2022-08-04T15:20:17.525Z,101103.41
2022-08-04T15:22:44.183Z,101108.84
2022-08-04T15:25:12.037Z,101107.81
2022-08-04T15:27:43.924Z,101101.31
2022-08-04T15:30:13.672Z,101103.34
2022-08-04T15:32:44.249Z,101081.84
2022-08-04T15:35:17.403Z,101086.97
2022-08-04T15:38:02.442Z,101083.91
2022-08-04T15:40:37.105Z,101092.97
2022-08-04T15:43:20.170Z,101082.88
2022-08-04T15:46:33.034Z,101083.59
2022-08-04T15:48:39.730Z,101080.19
2022-08-04T15:51:14.744Z,101070.81
2022-08-04T15:54:03.059Z,101076.31
2022-08-04T15:56:28.618Z,101076.00
2022-08-04T15:58:56.895Z,101065.19
2022-08-04T16:01:24.366Z,101068.63
2022-08-04T16:03:58.743Z,101069.94
2022-08-04T16:06:29.144Z,101075.00
2022-08-04T16:09:04.684Z,101060.75
2022-08-04T16:11:37.844Z,101076.81
2022-08-04T16:14:05.464Z,101079.91
2022-08-04T16:16:49.215Z,101079.91
2022-08-04T16:19:51.816Z,101086.25
2022-08-04T16:22:41.320Z,101076.28
2022-08-04T16:25:12.031Z,101074.84
2022-08-04T16:27:41.509Z,101072.09
2022-08-04T16:30:14.306Z,101066.31
2022-08-04T16:32:52.276Z,101061.22
2022-08-04T16:35:20.811Z,101073.44
2022-08-04T16:37:53.894Z,101072.59
2022-08-04T16:40:34.020Z,101071.25
2022-08-04T16:43:13.269Z,101058.31
2022-08-04T16:45:46.346Z,101068.75
2022-08-04T16:48:18.249Z,101059.38
2022-08-04T16:50:53.710Z,101066.91
2022-08-04T16:53:57.965Z,101073.75
2022-08-04T16:56:14.824Z,101064.56
2022-08-04T16:58:50.645Z,101063.03
2022-08-04T17:01:33.632Z,101050.88
2022-08-04T17:04:13.327Z,101053.38
2022-08-04T17:06:42.696Z,101046.84
2022-08-04T17:09:17.890Z,101039.25
2022-08-04T17:11:48.768Z,101040.41
2022-08-04T17:14:28.099Z,101024.66
2022-08-04T17:17:02.127Z,101018.47
2022-08-04T17:19:29.190Z,101026.94
2022-08-04T17:22:04.693Z,101015.81
2022-08-04T17:24:38.321Z,101015.91
2022-08-04T17:28:19.101Z,101005.50
2022-08-04T17:29:53.874Z,101012.84
2022-08-04T17:32:22.319Z,101034.63
2022-08-04T17:34:55.190Z,101036.28
2022-08-04T17:37:39.370Z,101040.66
2022-08-04T17:40:18.048Z,101045.34
2022-08-04T17:42:49.935Z,101057.91
2022-08-04T17:45:50.669Z,101053.75
2022-08-04T17:48:11.378Z,101060.00
2022-08-04T17:50:51.608Z,101049.03
2022-08-04T17:53:52.938Z,101061.69
2022-08-04T17:56:29.355Z,101044.75
2022-08-04T17:59:52.318Z,101050.25
2022-08-04T18:02:08.911Z,101040.47
2022-08-04T18:05:06.092Z,101042.22
2022-08-04T18:08:38.395Z,101027.81
2022-08-04T18:10:56.106Z,101029.44
2022-08-04T18:13:28.072Z,101017.47
2022-08-04T18:16:04.991Z,101015.03
2022-08-04T18:18:31.842Z,101022.50
2022-08-04T18:21:03.178Z,101025.53
2022-08-04T18:23:32.732Z,101025.41
2022-08-04T18:26:02.125Z,101020.06
2022-08-04T18:28:30.752Z,101009.22
2022-08-04T18:31:00.234Z,101019.69
2022-08-04T18:33:39.939Z,101016.56
2022-08-04T18:36:33.378Z,101018.72
2022-08-04T18:39:13.481Z,101015.56
2022-08-04T18:42:00.941Z,101010.59
2022-08-04T18:44:30.962Z,101012.19
2022-08-04T18:47:19.304Z,101016.50
2022-08-04T18:50:59.983Z,101010.63
2022-08-04T18:52:32.104Z,101009.06
2022-08-04T18:55:01.649Z,101006.97
2022-08-04T18:57:59.878Z,101006.53
2022-08-04T19:03:05.150Z,100992.56
2022-08-04T19:05:41.322Z,100985.28
2022-08-04T19:08:32.585Z,100988.31
2022-08-04T19:10:59.928Z,100987.84
2022-08-04T19:13:27.758Z,100986.56
2022-08-04T19:15:54.664Z,100984.16
2022-08-04T19:18:25.981Z,100975.59
2022-08-04T19:20:55.629Z,100983.16
2022-08-04T19:24:10.169Z,100992.56
2022-08-04T19:28:56.087Z,100990.88
2022-08-04T19:31:28.393Z,100989.88
2022-08-04T19:34:04.848Z,100978.31
2022-08-04T19:36:33.133Z,100987.16
2022-08-04T19:39:03.403Z,100982.72
2022-08-04T19:41:32.001Z,100980.91
2022-08-04T19:43:58.679Z,100980.31
2022-08-04T19:46:27.974Z,100970.72
2022-08-04T19:48:59.474Z,100967.31
2022-08-04T19:51:30.431Z,100961.19
2022-08-04T19:54:04.010Z,100962.47
2022-08-04T19:56:39.942Z,100960.31
2022-08-04T19:59:13.011Z,100954.56
2022-08-04T20:01:45.338Z,100948.56
2022-08-04T20:04:15.762Z,100942.72
2022-08-04T20:06:43.129Z,100951.13
2022-08-04T20:09:25.838Z,100951.41
2022-08-04T20:11:55.514Z,100948.41
2022-08-04T20:14:32.115Z,100943.41
2022-08-04T20:17:03.191Z,100946.53
2022-08-04T20:19:36.599Z,100952.22
2022-08-04T20:22:03.284Z,100962.38
2022-08-04T20:24:40.530Z,100973.31
2022-08-04T20:27:15.904Z,100985.44
2022-08-04T20:29:49.652Z,100979.31
2022-08-04T20:32:21.857Z,100986.84
2022-08-04T20:34:53.400Z,100975.41
2022-08-04T20:37:23.580Z,100965.72
2022-08-04T20:39:55.480Z,100957.72
2022-08-04T20:42:27.437Z,100964.16
2022-08-04T20:45:00.200Z,100970.69
2022-08-04T20:47:35.306Z,100979.25
2022-08-04T20:50:08.737Z,101035.66
2022-08-04T20:52:37.714Z,101075.13
2022-08-04T20:55:08.119Z,101041.72
2022-08-04T20:57:48.311Z,101082.59
2022-08-04T21:00:29.993Z,101090.38
2022-08-04T21:02:58.038Z,101054.84
2022-08-04T21:05:27.315Z,101072.94
2022-08-04T21:07:57.387Z,101063.13
2022-08-04T21:10:27.726Z,101055.38
2022-08-04T21:12:54.816Z,101055.38
2022-08-04T21:15:50.713Z,101054.41
2022-08-04T21:18:12.747Z,101054.41
2022-08-04T21:20:43.108Z,101056.97
2022-08-04T21:23:10.067Z,101056.72
2022-08-04T21:25:42.912Z,101061.97
2022-08-04T21:28:10.398Z,101059.00
2022-08-04T21:30:52.300Z,101062.59
2022-08-04T21:33:22.826Z,101065.44
2022-08-04T21:35:54.397Z,101073.53
2022-08-04T21:38:25.218Z,101072.69
2022-08-04T21:40:56.823Z,101064.69
2022-08-04T21:43:27.438Z,101058.31
2022-08-04T21:45:55.954Z,101065.31
2022-08-04T21:51:59.399Z,101068.13
2022-08-04T21:54:07.649Z,101081.31
2022-08-04T21:56:35.587Z,101088.84
2022-08-04T21:59:07.162Z,101102.19
2022-08-04T22:01:52.443Z,101103.69
2022-08-04T22:04:21.534Z,101098.38
2022-08-04T22:06:52.401Z,101080.44
2022-08-04T22:09:21.846Z,101086.97
2022-08-04T22:11:51.050Z,101068.28
2022-08-04T22:14:27.391Z,101073.22
2022-08-04T22:17:00.874Z,101072.25
2022-08-04T22:19:50.362Z,101083.69
2022-08-04T22:22:25.576Z,101085.53
2022-08-04T22:24:58.960Z,101088.13
2022-08-04T22:27:44.742Z,101110.13
2022-08-04T22:30:17.071Z,101115.56
2022-08-04T22:32:46.252Z,101119.25
2022-08-04T22:35:35.464Z,101108.44
2022-08-04T22:38:06.316Z,101103.03
2022-08-04T22:40:47.558Z,101092.22
2022-08-04T22:43:32.602Z,101085.22
2022-08-04T22:46:06.319Z,101077.25
2022-08-04T22:48:35.006Z,101079.81
2022-08-04T22:51:02.833Z,101080.91
2022-08-04T22:53:30.892Z,101068.88
2022-08-04T22:56:09.762Z,101073.09
2022-08-04T22:58:45.562Z,101064.50
2022-08-04T23:01:17.087Z,101077.28
2022-08-04T23:03:51.185Z,101077.16
2022-08-04T23:06:24.243Z,101084.38
2022-08-04T23:08:51.482Z,101081.69
2022-08-04T23:11:18.384Z,101082.56
2022-08-04T23:13:45.405Z,101080.81
2022-08-04T23:16:12.400Z,101082.56
2022-08-04T23:18:41.939Z,101079.97
2022-08-04T23:21:10.283Z,101074.94
2022-08-04T23:23:38.140Z,101070.88
2022-08-04T23:26:13.921Z,101066.94
2022-08-04T23:28:41.747Z,101077.38
2022-08-04T23:31:10.117Z,101078.94
2022-08-04T23:33:51.181Z,101072.31
2022-08-04T23:36:19.168Z,101077.81
2022-08-04T23:38:59.594Z,101068.63
2022-08-04T23:41:54.113Z,101063.13
2022-08-04T23:44:17.547Z,101055.88
2022-08-04T23:46:51.214Z,101062.38
2022-08-04T23:49:20.165Z,101054.75
2022-08-04T23:51:49.670Z,101049.50
2022-08-04T23:54:16.760Z,101048.63
2022-08-04T23:56:52.381Z,101046.28
2022-08-04T23:59:49.023Z,101044.81
